Dixiana, South Carolina
Current Conditions -  °F | °C
As of 7:56 AM on Wednesday 26 Nov 2014 (Local Time) from KCAE Reporting Station
Light Rain Light Rain  
Wind Chill: 47°   Ceiling: 4400
Heat Index: 49°   Visibility: 5mi
Dew Point: 46°   Wind: 5mph
Humidity: 90%   Direction: 360°N
Pressure: 29.97"   Gusts: NA
Location:  33.9973°N, 81.0998°W
Report Text: KCAE 261256Z 36004KT 5SM -RA BR SCT024 OVC044 09/08 A2997 RMK AO2 SLP147 P0005 T00940078
Loading
Personal Weather Stations






























Interactive Weather Map New forecast layout! Learn more

10-Day Weather Forecast

Advertisements
Track Severe Weather on mobile